Bannister, Michigan
Current Conditions -  °F | °C
As of 12:14 AM on Saturday 25 Oct 2014 (Local Time) from KRNP Reporting Station
Haze Haze  
Wind Chill: 42°   Ceiling: 700
Heat Index: 42°   Visibility: 1.7mi
Dew Point: 42°   Wind: 0mph
Humidity: 100%   Direction: NA
Pressure: 29.93"   Gusts: NA
Location:  43.13°N, 84.42°W
Report Text: KRNP 250414Z AUTO 00000KT 1 3/4SM BR VV007 06/06 A2993 RMK AO2 T00570057
Loading
Personal Weather Stations






























Interactive Weather Map
Tropical Storm Tracking
New forecast layout! Learn more

10-Day Weather Forecast

Advertisements
Track Severe Weather on mobile